sensor_id;sensor_type;location;lat;lon;timestamp;temperature;humidity
78793;SHT31;68134;51.984;5.652;2024-03-06T00:00:08;8.3;71.5
78793;SHT31;68134;51.984;5.652;2024-03-06T00:02:37;8.2;71.2
78793;SHT31;68134;51.984;5.652;2024-03-06T00:05:08;8.1;72.9
78793;SHT31;68134;51.984;5.652;2024-03-06T00:07:37;8.1;74.0
78793;SHT31;68134;51.984;5.652;2024-03-06T00:10:07;8.1;73.7
78793;SHT31;68134;51.984;5.652;2024-03-06T00:12:35;8.0;72.9
78793;SHT31;68134;51.984;5.652;2024-03-06T00:15:06;8.0;72.9
78793;SHT31;68134;51.984;5.652;2024-03-06T00:17:35;7.9;72.6
78793;SHT31;68134;51.984;5.652;2024-03-06T00:20:04;7.9;73.0
78793;SHT31;68134;51.984;5.652;2024-03-06T00:22:35;7.9;72.5
78793;SHT31;68134;51.984;5.652;2024-03-06T00:25:04;7.9;72.6
78793;SHT31;68134;51.984;5.652;2024-03-06T00:27:33;7.8;72.0
78793;SHT31;68134;51.984;5.652;2024-03-06T00:30:01;7.8;72.3
78793;SHT31;68134;51.984;5.652;2024-03-06T00:32:30;7.8;72.2
78793;SHT31;68134;51.984;5.652;2024-03-06T00:34:58;7.7;71.8
78793;SHT31;68134;51.984;5.652;2024-03-06T00:37:27;7.7;71.9
78793;SHT31;68134;51.984;5.652;2024-03-06T00:39:55;7.7;71.2
78793;SHT31;68134;51.984;5.652;2024-03-06T00:42:24;7.6;71.4
78793;SHT31;68134;51.984;5.652;2024-03-06T00:44:52;7.6;71.1
78793;SHT31;68134;51.984;5.652;2024-03-06T00:47:21;7.6;71.2
78793;SHT31;68134;51.984;5.652;2024-03-06T00:49:49;7.5;71.4
78793;SHT31;68134;51.984;5.652;2024-03-06T00:52:18;7.5;71.9
78793;SHT31;68134;51.984;5.652;2024-03-06T00:54:47;7.5;71.8
78793;SHT31;68134;51.984;5.652;2024-03-06T00:57:15;7.5;72.4
78793;SHT31;68134;51.984;5.652;2024-03-06T00:59:44;7.4;71.7
78793;SHT31;68134;51.984;5.652;2024-03-06T01:02:12;7.4;72.2
78793;SHT31;68134;51.984;5.652;2024-03-06T01:04:41;7.4;72.1
78793;SHT31;68134;51.984;5.652;2024-03-06T01:07:09;7.4;72.2
78793;SHT31;68134;51.984;5.652;2024-03-06T01:09:38;7.4;71.6
78793;SHT31;68134;51.984;5.652;2024-03-06T01:12:09;7.4;71.7
78793;SHT31;68134;51.984;5.652;2024-03-06T01:14:37;7.3;71.2
78793;SHT31;68134;51.984;5.652;2024-03-06T01:17:06;7.3;71.2
78793;SHT31;68134;51.984;5.652;2024-03-06T01:19:36;7.3;71.2
78793;SHT31;68134;51.984;5.652;2024-03-06T01:22:05;7.2;71.0
78793;SHT31;68134;51.984;5.652;2024-03-06T01:24:33;7.2;71.2
78793;SHT31;68134;51.984;5.652;2024-03-06T01:27:02;7.2;71.2
78793;SHT31;68134;51.984;5.652;2024-03-06T01:29:31;7.2;71.5
78793;SHT31;68134;51.984;5.652;2024-03-06T01:32:02;7.1;71.4
78793;SHT31;68134;51.984;5.652;2024-03-06T01:34:30;7.1;71.5
78793;SHT31;68134;51.984;5.652;2024-03-06T01:36:59;7.1;71.3
78793;SHT31;68134;51.984;5.652;2024-03-06T01:39:27;7.0;71.5
78793;SHT31;68134;51.984;5.652;2024-03-06T01:41:56;7.0;70.9
78793;SHT31;68134;51.984;5.652;2024-03-06T01:44:24;6.9;70.7
78793;SHT31;68134;51.984;5.652;2024-03-06T01:46:53;6.9;70.6
78793;SHT31;68134;51.984;5.652;2024-03-06T01:49:25;6.9;70.7
78793;SHT31;68134;51.984;5.652;2024-03-06T01:51:56;6.8;70.5
78793;SHT31;68134;51.984;5.652;2024-03-06T01:54:26;6.8;70.4
78793;SHT31;68134;51.984;5.652;2024-03-06T01:56:55;6.8;70.6
78793;SHT31;68134;51.984;5.652;2024-03-06T01:59:26;6.7;70.5
78793;SHT31;68134;51.984;5.652;2024-03-06T02:01:55;6.7;70.9
78793;SHT31;68134;51.984;5.652;2024-03-06T02:04:25;6.7;71.3
78793;SHT31;68134;51.984;5.652;2024-03-06T02:06:55;6.6;71.8
78793;SHT31;68134;51.984;5.652;2024-03-06T02:09:24;6.6;72.4
78793;SHT31;68134;51.984;5.652;2024-03-06T02:11:54;6.6;71.7
78793;SHT31;68134;51.984;5.652;2024-03-06T02:14:23;6.6;71.7
78793;SHT31;68134;51.984;5.652;2024-03-06T02:16:53;6.5;71.9
78793;SHT31;68134;51.984;5.652;2024-03-06T02:19:21;6.5;71.8
78793;SHT31;68134;51.984;5.652;2024-03-06T02:21:50;6.5;71.2
78793;SHT31;68134;51.984;5.652;2024-03-06T02:24:18;6.5;71.4
78793;SHT31;68134;51.984;5.652;2024-03-06T02:26:49;6.5;71.4
78793;SHT31;68134;51.984;5.652;2024-03-06T02:29:20;6.4;71.1
78793;SHT31;68134;51.984;5.652;2024-03-06T02:31:51;6.4;70.8
78793;SHT31;68134;51.984;5.652;2024-03-06T02:34:20;6.4;71.2
78793;SHT31;68134;51.984;5.652;2024-03-06T02:36:50;6.4;71.0
78793;SHT31;68134;51.984;5.652;2024-03-06T02:39:19;6.3;71.3
78793;SHT31;68134;51.984;5.652;2024-03-06T02:41:47;6.3;71.0
78793;SHT31;68134;51.984;5.652;2024-03-06T02:44:16;6.3;71.3
78793;SHT31;68134;51.984;5.652;2024-03-06T02:46:48;6.2;70.9
78793;SHT31;68134;51.984;5.652;2024-03-06T02:49:18;6.2;71.1
78793;SHT31;68134;51.984;5.652;2024-03-06T02:51:47;6.2;71.6
78793;SHT31;68134;51.984;5.652;2024-03-06T02:54:15;6.2;71.7
78793;SHT31;68134;51.984;5.652;2024-03-06T02:56:44;6.1;71.5
78793;SHT31;68134;51.984;5.652;2024-03-06T02:59:12;6.1;71.5
78793;SHT31;68134;51.984;5.652;2024-03-06T03:01:41;6.1;72.3
78793;SHT31;68134;51.984;5.652;2024-03-06T03:04:10;6.1;72.6
78793;SHT31;68134;51.984;5.652;2024-03-06T03:06:39;6.1;72.5
78793;SHT31;68134;51.984;5.652;2024-03-06T03:09:07;6.1;72.5
78793;SHT31;68134;51.984;5.652;2024-03-06T03:11:38;6.1;72.3
78793;SHT31;68134;51.984;5.652;2024-03-06T03:14:06;6.1;71.9
78793;SHT31;68134;51.984;5.652;2024-03-06T03:16:35;6.1;71.3
78793;SHT31;68134;51.984;5.652;2024-03-06T03:19:03;6.0;71.2
78793;SHT31;68134;51.984;5.652;2024-03-06T03:21:34;6.0;71.4
78793;SHT31;68134;51.984;5.652;2024-03-06T03:24:04;6.0;71.3
78793;SHT31;68134;51.984;5.652;2024-03-06T03:26:33;6.0;70.8
78793;SHT31;68134;51.984;5.652;2024-03-06T03:29:01;5.9;70.6
78793;SHT31;68134;51.984;5.652;2024-03-06T03:31:30;5.9;70.3
78793;SHT31;68134;51.984;5.652;2024-03-06T03:34:00;5.9;70.4
78793;SHT31;68134;51.984;5.652;2024-03-06T03:36:29;5.8;70.7
78793;SHT31;68134;51.984;5.652;2024-03-06T03:38:59;5.8;71.0
78793;SHT31;68134;51.984;5.652;2024-03-06T03:41:29;5.8;70.6
78793;SHT31;68134;51.984;5.652;2024-03-06T03:43:57;5.7;71.0
78793;SHT31;68134;51.984;5.652;2024-03-06T03:46:26;5.7;71.3
78793;SHT31;68134;51.984;5.652;2024-03-06T03:48:54;5.7;71.1
78793;SHT31;68134;51.984;5.652;2024-03-06T03:51:23;5.6;71.7
78793;SHT31;68134;51.984;5.652;2024-03-06T03:53:51;5.6;71.4
78793;SHT31;68134;51.984;5.652;2024-03-06T03:56:20;5.6;72.2
78793;SHT31;68134;51.984;5.652;2024-03-06T03:58:48;5.6;72.4
78793;SHT31;68134;51.984;5.652;2024-03-06T04:01:17;5.5;72.5
78793;SHT31;68134;51.984;5.652;2024-03-06T04:03:45;5.5;72.4
78793;SHT31;68134;51.984;5.652;2024-03-06T04:06:16;5.5;72.0
78793;SHT31;68134;51.984;5.652;2024-03-06T04:08:45;5.5;72.4
78793;SHT31;68134;51.984;5.652;2024-03-06T04:11:15;5.4;72.0
78793;SHT31;68134;51.984;5.652;2024-03-06T04:13:44;5.4;71.7
78793;SHT31;68134;51.984;5.652;2024-03-06T04:16:15;5.4;71.7
78793;SHT31;68134;51.984;5.652;2024-03-06T04:18:46;5.4;71.7
78793;SHT31;68134;51.984;5.652;2024-03-06T04:21:15;5.4;71.1
78793;SHT31;68134;51.984;5.652;2024-03-06T04:23:44;5.4;70.6
78793;SHT31;68134;51.984;5.652;2024-03-06T04:26:13;5.4;70.2
78793;SHT31;68134;51.984;5.652;2024-03-06T04:28:44;5.3;70.0
78793;SHT31;68134;51.984;5.652;2024-03-06T04:31:12;5.3;70.7
78793;SHT31;68134;51.984;5.652;2024-03-06T04:33:44;5.3;70.9
78793;SHT31;68134;51.984;5.652;2024-03-06T04:36:13;5.3;70.8
78793;SHT31;68134;51.984;5.652;2024-03-06T04:38:41;5.2;70.3
78793;SHT31;68134;51.984;5.652;2024-03-06T04:41:10;5.2;70.1
78793;SHT31;68134;51.984;5.652;2024-03-06T04:43:38;5.2;70.2
78793;SHT31;68134;51.984;5.652;2024-03-06T04:46:12;5.2;70.1
78793;SHT31;68134;51.984;5.652;2024-03-06T04:48:41;5.1;69.9
78793;SHT31;68134;51.984;5.652;2024-03-06T04:51:10;5.1;69.7
78793;SHT31;68134;51.984;5.652;2024-03-06T04:53:39;5.1;70.1
78793;SHT31;68134;51.984;5.652;2024-03-06T04:56:08;5.0;69.7
78793;SHT31;68134;51.984;5.652;2024-03-06T04:58:37;5.0;69.9
78793;SHT31;68134;51.984;5.652;2024-03-06T05:01:05;5.0;70.1
78793;SHT31;68134;51.984;5.652;2024-03-06T05:03:35;4.9;70.3
78793;SHT31;68134;51.984;5.652;2024-03-06T05:06:05;4.9;70.4
78793;SHT31;68134;51.984;5.652;2024-03-06T05:08:33;4.9;70.6
78793;SHT31;68134;51.984;5.652;2024-03-06T05:11:02;4.9;70.2
78793;SHT31;68134;51.984;5.652;2024-03-06T05:13:31;4.8;70.9
78793;SHT31;68134;51.984;5.652;2024-03-06T05:15:59;4.8;70.7
78793;SHT31;68134;51.984;5.652;2024-03-06T05:18:28;4.8;70.7
78793;SHT31;68134;51.984;5.652;2024-03-06T05:20:56;4.7;70.7
78793;SHT31;68134;51.984;5.652;2024-03-06T05:23:25;4.7;70.9
78793;SHT31;68134;51.984;5.652;2024-03-06T05:25:54;4.7;71.2
78793;SHT31;68134;51.984;5.652;2024-03-06T05:28:22;4.7;71.3
78793;SHT31;68134;51.984;5.652;2024-03-06T05:30:50;4.7;71.7
78793;SHT31;68134;51.984;5.652;2024-03-06T05:33:19;4.7;71.4
78793;SHT31;68134;51.984;5.652;2024-03-06T05:35:48;4.6;71.8
78793;SHT31;68134;51.984;5.652;2024-03-06T05:38:17;4.6;71.9
78793;SHT31;68134;51.984;5.652;2024-03-06T05:40:45;4.6;71.3
78793;SHT31;68134;51.984;5.652;2024-03-06T05:43:14;4.6;71.1
78793;SHT31;68134;51.984;5.652;2024-03-06T05:45:42;4.6;71.2
78793;SHT31;68134;51.984;5.652;2024-03-06T05:48:11;4.6;71.0
78793;SHT31;68134;51.984;5.652;2024-03-06T05:50:40;4.6;71.0
78793;SHT31;68134;51.984;5.652;2024-03-06T05:53:09;4.6;71.1
78793;SHT31;68134;51.984;5.652;2024-03-06T05:55:38;4.5;71.5
78793;SHT31;68134;51.984;5.652;2024-03-06T05:58:06;4.5;71.4
78793;SHT31;68134;51.984;5.652;2024-03-06T06:00:35;4.5;71.6
78793;SHT31;68134;51.984;5.652;2024-03-06T06:03:04;4.5;71.6
78793;SHT31;68134;51.984;5.652;2024-03-06T06:05:33;4.4;72.0
78793;SHT31;68134;51.984;5.652;2024-03-06T06:08:03;4.4;72.4
78793;SHT31;68134;51.984;5.652;2024-03-06T06:10:32;4.4;72.4
78793;SHT31;68134;51.984;5.652;2024-03-06T06:13:01;4.4;72.9
78793;SHT31;68134;51.984;5.652;2024-03-06T06:15:31;4.4;72.9
78793;SHT31;68134;51.984;5.652;2024-03-06T06:17:59;4.4;73.9
78793;SHT31;68134;51.984;5.652;2024-03-06T06:20:28;4.4;74.8
78793;SHT31;68134;51.984;5.652;2024-03-06T06:22:56;4.4;75.6
78793;SHT31;68134;51.984;5.652;2024-03-06T06:25:25;4.4;76.5
78793;SHT31;68134;51.984;5.652;2024-03-06T06:27:53;4.5;77.0
78793;SHT31;68134;51.984;5.652;2024-03-06T06:30:22;4.5;77.3
78793;SHT31;68134;51.984;5.652;2024-03-06T06:32:51;4.6;77.5
78793;SHT31;68134;51.984;5.652;2024-03-06T06:35:20;4.6;79.2
78793;SHT31;68134;51.984;5.652;2024-03-06T06:37:49;4.7;81.4
78793;SHT31;68134;51.984;5.652;2024-03-06T06:40:17;4.8;82.7
78793;SHT31;68134;51.984;5.652;2024-03-06T06:42:49;4.9;83.5
78793;SHT31;68134;51.984;5.652;2024-03-06T06:45:19;5.0;84.2
78793;SHT31;68134;51.984;5.652;2024-03-06T06:47:49;5.2;84.4
78793;SHT31;68134;51.984;5.652;2024-03-06T06:50:18;5.3;84.2
78793;SHT31;68134;51.984;5.652;2024-03-06T06:52:49;5.5;83.7
78793;SHT31;68134;51.984;5.652;2024-03-06T06:55:18;5.6;83.1
78793;SHT31;68134;51.984;5.652;2024-03-06T06:57:49;5.7;83.3
78793;SHT31;68134;51.984;5.652;2024-03-06T07:00:18;5.8;83.3
78793;SHT31;68134;51.984;5.652;2024-03-06T07:02:49;5.9;83.2
78793;SHT31;68134;51.984;5.652;2024-03-06T07:05:18;6.0;83.4
78793;SHT31;68134;51.984;5.652;2024-03-06T07:07:47;6.1;82.9
78793;SHT31;68134;51.984;5.652;2024-03-06T07:10:15;6.2;82.8
78793;SHT31;68134;51.984;5.652;2024-03-06T07:12:44;6.3;82.2
78793;SHT31;68134;51.984;5.652;2024-03-06T07:15:12;6.4;82.1
78793;SHT31;68134;51.984;5.652;2024-03-06T07:17:41;6.4;81.8
78793;SHT31;68134;51.984;5.652;2024-03-06T07:20:10;6.5;81.4
78793;SHT31;68134;51.984;5.652;2024-03-06T07:22:40;6.5;81.0
78793;SHT31;68134;51.984;5.652;2024-03-06T07:25:09;6.6;80.5
78793;SHT31;68134;51.984;5.652;2024-03-06T07:27:38;6.6;79.9
78793;SHT31;68134;51.984;5.652;2024-03-06T07:30:07;6.6;79.5
78793;SHT31;68134;51.984;5.652;2024-03-06T07:32:37;6.6;79.2
78793;SHT31;68134;51.984;5.652;2024-03-06T07:35:07;6.5;79.2
78793;SHT31;68134;51.984;5.652;2024-03-06T07:37:36;6.5;79.2
78793;SHT31;68134;51.984;5.652;2024-03-06T07:40:05;6.5;79.6
78793;SHT31;68134;51.984;5.652;2024-03-06T07:42:36;6.4;79.7
78793;SHT31;68134;51.984;5.652;2024-03-06T07:45:05;6.4;79.7
78793;SHT31;68134;51.984;5.652;2024-03-06T07:47:35;6.4;80.0
78793;SHT31;68134;51.984;5.652;2024-03-06T07:50:07;6.4;80.4
78793;SHT31;68134;51.984;5.652;2024-03-06T07:52:37;6.4;80.3
78793;SHT31;68134;51.984;5.652;2024-03-06T07:55:09;6.4;80.5
78793;SHT31;68134;51.984;5.652;2024-03-06T07:57:37;6.4;80.4
78793;SHT31;68134;51.984;5.652;2024-03-06T08:00:07;6.4;80.4
78793;SHT31;68134;51.984;5.652;2024-03-06T08:02:41;6.5;80.2
78793;SHT31;68134;51.984;5.652;2024-03-06T08:05:17;6.5;80.1
78793;SHT31;68134;51.984;5.652;2024-03-06T08:07:47;6.5;80.7
78793;SHT31;68134;51.984;5.652;2024-03-06T08:10:18;6.5;80.5
78793;SHT31;68134;51.984;5.652;2024-03-06T08:12:46;6.5;80.6
78793;SHT31;68134;51.984;5.652;2024-03-06T08:15:16;6.5;80.7
78793;SHT31;68134;51.984;5.652;2024-03-06T08:17:44;6.5;80.8
78793;SHT31;68134;51.984;5.652;2024-03-06T08:20:15;6.6;81.3
78793;SHT31;68134;51.984;5.652;2024-03-06T08:22:43;6.6;80.9
78793;SHT31;68134;51.984;5.652;2024-03-06T08:25:13;6.6;80.9
78793;SHT31;68134;51.984;5.652;2024-03-06T08:27:42;6.7;80.9
78793;SHT31;68134;51.984;5.652;2024-03-06T08:30:11;6.7;80.8
78793;SHT31;68134;51.984;5.652;2024-03-06T08:35:05;6.9;80.4
78793;SHT31;68134;51.984;5.652;2024-03-06T08:37:34;6.9;80.4
78793;SHT31;68134;51.984;5.652;2024-03-06T08:40:03;7.0;80.6
78793;SHT31;68134;51.984;5.652;2024-03-06T08:42:31;7.0;80.8
78793;SHT31;68134;51.984;5.652;2024-03-06T08:45:00;7.1;80.9
78793;SHT31;68134;51.984;5.652;2024-03-06T08:47:29;7.1;80.9
78793;SHT31;68134;51.984;5.652;2024-03-06T08:49:58;7.2;80.8
78793;SHT31;68134;51.984;5.652;2024-03-06T08:52:28;7.3;80.9
78793;SHT31;68134;51.984;5.652;2024-03-06T08:54:57;7.3;80.7
78793;SHT31;68134;51.984;5.652;2024-03-06T08:57:26;7.4;80.3
78793;SHT31;68134;51.984;5.652;2024-03-06T08:59:57;7.4;80.7
78793;SHT31;68134;51.984;5.652;2024-03-06T09:02:26;7.4;80.9
78793;SHT31;68134;51.984;5.652;2024-03-06T09:04:55;7.5;81.1
78793;SHT31;68134;51.984;5.652;2024-03-06T09:07:23;7.5;81.3
78793;SHT31;68134;51.984;5.652;2024-03-06T09:09:52;7.6;81.8
78793;SHT31;68134;51.984;5.652;2024-03-06T09:12:20;7.6;81.4
78793;SHT31;68134;51.984;5.652;2024-03-06T09:14:49;7.7;81.3
78793;SHT31;68134;51.984;5.652;2024-03-06T09:17:17;7.7;81.0
78793;SHT31;68134;51.984;5.652;2024-03-06T09:19:46;7.8;80.9
78793;SHT31;68134;51.984;5.652;2024-03-06T09:22:15;7.8;80.5
78793;SHT31;68134;51.984;5.652;2024-03-06T09:24:43;7.8;81.2
78793;SHT31;68134;51.984;5.652;2024-03-06T09:27:12;7.9;81.5
78793;SHT31;68134;51.984;5.652;2024-03-06T09:29:43;8.0;82.3
78793;SHT31;68134;51.984;5.652;2024-03-06T09:32:11;8.1;81.5
78793;SHT31;68134;51.984;5.652;2024-03-06T09:34:42;8.2;81.3
78793;SHT31;68134;51.984;5.652;2024-03-06T09:37:13;8.3;81.7
78793;SHT31;68134;51.984;5.652;2024-03-06T09:39:42;8.4;80.7
78793;SHT31;68134;51.984;5.652;2024-03-06T09:42:13;8.5;80.2
78793;SHT31;68134;51.984;5.652;2024-03-06T09:44:44;8.6;80.4
78793;SHT31;68134;51.984;5.652;2024-03-06T09:47:14;8.7;79.6
78793;SHT31;68134;51.984;5.652;2024-03-06T09:49:43;8.8;80.0
78793;SHT31;68134;51.984;5.652;2024-03-06T09:52:14;8.9;79.7
78793;SHT31;68134;51.984;5.652;2024-03-06T09:54:42;8.9;79.7
78793;SHT31;68134;51.984;5.652;2024-03-06T09:57:11;9.0;78.2
78793;SHT31;68134;51.984;5.652;2024-03-06T09:59:43;9.1;78.1
78793;SHT31;68134;51.984;5.652;2024-03-06T10:02:26;9.2;79.0
78793;SHT31;68134;51.984;5.652;2024-03-06T10:04:56;9.2;77.4
78793;SHT31;68134;51.984;5.652;2024-03-06T10:07:25;9.3;76.8
78793;SHT31;68134;51.984;5.652;2024-03-06T10:09:55;9.3;78.0
78793;SHT31;68134;51.984;5.652;2024-03-06T10:12:24;9.4;78.1
78793;SHT31;68134;51.984;5.652;2024-03-06T10:14:55;9.5;78.8
78793;SHT31;68134;51.984;5.652;2024-03-06T10:17:23;9.6;78.8
78793;SHT31;68134;51.984;5.652;2024-03-06T10:19:53;9.7;76.7
78793;SHT31;68134;51.984;5.652;2024-03-06T10:22:25;9.7;76.4
78793;SHT31;68134;51.984;5.652;2024-03-06T10:24:57;9.8;76.3
78793;SHT31;68134;51.984;5.652;2024-03-06T10:27:26;9.8;75.9
78793;SHT31;68134;51.984;5.652;2024-03-06T10:30:02;9.8;76.4
78793;SHT31;68134;51.984;5.652;2024-03-06T10:32:32;9.8;75.8
78793;SHT31;68134;51.984;5.652;2024-03-06T10:35:01;9.9;75.4
78793;SHT31;68134;51.984;5.652;2024-03-06T10:37:29;9.9;75.3
78793;SHT31;68134;51.984;5.652;2024-03-06T10:39:58;9.9;75.3
78793;SHT31;68134;51.984;5.652;2024-03-06T10:42:33;9.9;75.4
78793;SHT31;68134;51.984;5.652;2024-03-06T10:45:04;9.9;76.3
78793;SHT31;68134;51.984;5.652;2024-03-06T10:47:35;10.0;77.6
78793;SHT31;68134;51.984;5.652;2024-03-06T10:50:06;10.1;74.9
78793;SHT31;68134;51.984;5.652;2024-03-06T10:52:38;10.2;75.8
78793;SHT31;68134;51.984;5.652;2024-03-06T10:55:08;10.2;74.3
78793;SHT31;68134;51.984;5.652;2024-03-06T10:57:40;10.3;74.1
78793;SHT31;68134;51.984;5.652;2024-03-06T11:00:10;10.4;73.1
78793;SHT31;68134;51.984;5.652;2024-03-06T11:02:45;10.4;73.1
78793;SHT31;68134;51.984;5.652;2024-03-06T11:05:16;10.5;73.2
78793;SHT31;68134;51.984;5.652;2024-03-06T11:07:45;10.6;72.0
78793;SHT31;68134;51.984;5.652;2024-03-06T11:10:31;10.6;72.1
78793;SHT31;68134;51.984;5.652;2024-03-06T11:13:01;10.7;72.7
78793;SHT31;68134;51.984;5.652;2024-03-06T11:15:31;10.9;71.1
78793;SHT31;68134;51.984;5.652;2024-03-06T11:20:53;11.1;71.5
78793;SHT31;68134;51.984;5.652;2024-03-06T11:23:27;11.3;71.8
78793;SHT31;68134;51.984;5.652;2024-03-06T11:26:02;11.6;70.7
78793;SHT31;68134;51.984;5.652;2024-03-06T11:28:37;11.8;67.9
78793;SHT31;68134;51.984;5.652;2024-03-06T11:31:09;12.0;68.5
78793;SHT31;68134;51.984;5.652;2024-03-06T11:33:41;12.3;67.3
78793;SHT31;68134;51.984;5.652;2024-03-06T11:36:19;12.4;66.2
78793;SHT31;68134;51.984;5.652;2024-03-06T11:38:57;12.6;67.2
78793;SHT31;68134;51.984;5.652;2024-03-06T11:41:27;12.8;65.9
78793;SHT31;68134;51.984;5.652;2024-03-06T11:44:00;13.1;66.5
78793;SHT31;68134;51.984;5.652;2024-03-06T11:46:42;13.8;63.2
78793;SHT31;68134;51.984;5.652;2024-03-06T11:49:17;14.1;61.4
78793;SHT31;68134;51.984;5.652;2024-03-06T11:51:48;14.4;60.4
78793;SHT31;68134;51.984;5.652;2024-03-06T11:54:17;14.6;59.5
78793;SHT31;68134;51.984;5.652;2024-03-06T11:56:51;14.9;59.9
78793;SHT31;68134;51.984;5.652;2024-03-06T11:59:22;15.4;57.7
78793;SHT31;68134;51.984;5.652;2024-03-06T12:01:52;16.0;56.7
78793;SHT31;68134;51.984;5.652;2024-03-06T12:04:22;16.3;53.7
78793;SHT31;68134;51.984;5.652;2024-03-06T12:06:51;16.5;53.4
78793;SHT31;68134;51.984;5.652;2024-03-06T12:09:20;16.8;52.4
78793;SHT31;68134;51.984;5.652;2024-03-06T12:11:48;17.1;52.6
78793;SHT31;68134;51.984;5.652;2024-03-06T12:14:18;17.5;51.9
78793;SHT31;68134;51.984;5.652;2024-03-06T12:16:57;18.0;50.8
78793;SHT31;68134;51.984;5.652;2024-03-06T12:19:28;18.4;49.1
78793;SHT31;68134;51.984;5.652;2024-03-06T12:21:59;18.7;48.3
78793;SHT31;68134;51.984;5.652;2024-03-06T12:24:28;19.0;47.9
78793;SHT31;68134;51.984;5.652;2024-03-06T12:27:04;19.2;46.3
78793;SHT31;68134;51.984;5.652;2024-03-06T12:29:35;19.4;45.3
78793;SHT31;68134;51.984;5.652;2024-03-06T12:32:04;19.5;46.2
78793;SHT31;68134;51.984;5.652;2024-03-06T12:34:33;19.6;45.1
78793;SHT31;68134;51.984;5.652;2024-03-06T12:37:10;19.8;45.6
78793;SHT31;68134;51.984;5.652;2024-03-06T12:39:39;20.0;45.3
78793;SHT31;68134;51.984;5.652;2024-03-06T12:42:07;20.3;44.3
78793;SHT31;68134;51.984;5.652;2024-03-06T12:44:36;20.5;44.3
78793;SHT31;68134;51.984;5.652;2024-03-06T12:47:06;20.7;44.2
78793;SHT31;68134;51.984;5.652;2024-03-06T12:49:34;20.9;43.7
78793;SHT31;68134;51.984;5.652;2024-03-06T12:52:03;21.0;42.6
78793;SHT31;68134;51.984;5.652;2024-03-06T12:54:33;21.2;42.1
78793;SHT31;68134;51.984;5.652;2024-03-06T12:57:01;21.3;41.9
78793;SHT31;68134;51.984;5.652;2024-03-06T12:59:32;21.4;41.2
78793;SHT31;68134;51.984;5.652;2024-03-06T13:02:01;21.6;40.5
78793;SHT31;68134;51.984;5.652;2024-03-06T13:04:29;21.8;40.2
78793;SHT31;68134;51.984;5.652;2024-03-06T13:06:58;22.0;39.9
78793;SHT31;68134;51.984;5.652;2024-03-06T13:09:26;22.1;40.1
78793;SHT31;68134;51.984;5.652;2024-03-06T13:11:55;22.3;39.5
78793;SHT31;68134;51.984;5.652;2024-03-06T13:14:23;22.4;38.8
78793;SHT31;68134;51.984;5.652;2024-03-06T13:16:52;22.4;39.0
78793;SHT31;68134;51.984;5.652;2024-03-06T13:19:20;22.4;37.8
78793;SHT31;68134;51.984;5.652;2024-03-06T13:21:49;22.5;38.0
78793;SHT31;68134;51.984;5.652;2024-03-06T13:24:20;22.5;36.4
78793;SHT31;68134;51.984;5.652;2024-03-06T13:26:51;22.6;36.2
78793;SHT31;68134;51.984;5.652;2024-03-06T13:29:19;22.7;35.0
78793;SHT31;68134;51.984;5.652;2024-03-06T13:31:50;22.7;36.4
78793;SHT31;68134;51.984;5.652;2024-03-06T13:34:18;22.8;36.4
78793;SHT31;68134;51.984;5.652;2024-03-06T13:36:47;22.9;36.4
78793;SHT31;68134;51.984;5.652;2024-03-06T13:39:15;23.0;36.3
78793;SHT31;68134;51.984;5.652;2024-03-06T13:41:44;23.1;35.7
78793;SHT31;68134;51.984;5.652;2024-03-06T13:44:13;23.2;34.5
78793;SHT31;68134;51.984;5.652;2024-03-06T13:46:43;23.3;34.6
78793;SHT31;68134;51.984;5.652;2024-03-06T13:49:33;23.5;34.1
78793;SHT31;68134;51.984;5.652;2024-03-06T13:51:57;23.6;33.1
78793;SHT31;68134;51.984;5.652;2024-03-06T13:54:26;23.6;33.8
78793;SHT31;68134;51.984;5.652;2024-03-06T13:56:55;23.6;33.5
78793;SHT31;68134;51.984;5.652;2024-03-06T13:59:27;23.7;33.4
78793;SHT31;68134;51.984;5.652;2024-03-06T14:01:56;23.8;32.4
78793;SHT31;68134;51.984;5.652;2024-03-06T14:04:26;23.9;32.6
78793;SHT31;68134;51.984;5.652;2024-03-06T14:06:55;24.0;33.1
78793;SHT31;68134;51.984;5.652;2024-03-06T14:09:25;24.0;32.8
78793;SHT31;68134;51.984;5.652;2024-03-06T14:11:54;24.0;32.7
78793;SHT31;68134;51.984;5.652;2024-03-06T14:14:23;24.0;32.1
78793;SHT31;68134;51.984;5.652;2024-03-06T14:16:51;24.0;32.1
78793;SHT31;68134;51.984;5.652;2024-03-06T14:19:20;24.0;32.4
78793;SHT31;68134;51.984;5.652;2024-03-06T14:21:49;24.0;31.0
78793;SHT31;68134;51.984;5.652;2024-03-06T14:24:18;23.8;31.2
78793;SHT31;68134;51.984;5.652;2024-03-06T14:26:46;23.5;31.2
78793;SHT31;68134;51.984;5.652;2024-03-06T14:29:15;23.3;32.5
78793;SHT31;68134;51.984;5.652;2024-03-06T14:31:44;23.1;32.9
78793;SHT31;68134;51.984;5.652;2024-03-06T14:34:13;23.0;33.1
78793;SHT31;68134;51.984;5.652;2024-03-06T14:36:44;23.0;32.3
78793;SHT31;68134;51.984;5.652;2024-03-06T14:39:13;22.9;31.8
78793;SHT31;68134;51.984;5.652;2024-03-06T14:41:41;22.8;33.0
78793;SHT31;68134;51.984;5.652;2024-03-06T14:44:13;22.8;32.0
78793;SHT31;68134;51.984;5.652;2024-03-06T14:46:42;22.7;31.5
78793;SHT31;68134;51.984;5.652;2024-03-06T14:49:11;22.7;32.5
78793;SHT31;68134;51.984;5.652;2024-03-06T14:51:41;22.7;32.4
78793;SHT31;68134;51.984;5.652;2024-03-06T14:54:10;22.8;32.2
78793;SHT31;68134;51.984;5.652;2024-03-06T14:56:38;22.8;32.2
78793;SHT31;68134;51.984;5.652;2024-03-06T14:59:08;22.8;31.4
78793;SHT31;68134;51.984;5.652;2024-03-06T15:01:37;22.7;32.7
78793;SHT31;68134;51.984;5.652;2024-03-06T15:04:06;22.8;31.8
78793;SHT31;68134;51.984;5.652;2024-03-06T15:06:36;22.7;32.7
78793;SHT31;68134;51.984;5.652;2024-03-06T15:09:05;22.7;33.1
78793;SHT31;68134;51.984;5.652;2024-03-06T15:11:38;22.7;32.1
78793;SHT31;68134;51.984;5.652;2024-03-06T15:14:07;22.6;32.8
78793;SHT31;68134;51.984;5.652;2024-03-06T15:16:36;22.6;33.2
78793;SHT31;68134;51.984;5.652;2024-03-06T15:19:06;22.6;32.5
78793;SHT31;68134;51.984;5.652;2024-03-06T15:21:34;22.7;32.8
78793;SHT31;68134;51.984;5.652;2024-03-06T15:24:03;22.7;32.3
78793;SHT31;68134;51.984;5.652;2024-03-06T15:26:32;22.5;32.6
78793;SHT31;68134;51.984;5.652;2024-03-06T15:29:01;22.4;32.4
78793;SHT31;68134;51.984;5.652;2024-03-06T15:31:31;22.3;32.4
78793;SHT31;68134;51.984;5.652;2024-03-06T15:33:59;22.2;32.6
78793;SHT31;68134;51.984;5.652;2024-03-06T15:36:28;22.0;32.9
78793;SHT31;68134;51.984;5.652;2024-03-06T15:38:57;21.8;33.8
78793;SHT31;68134;51.984;5.652;2024-03-06T15:41:25;21.6;33.0
78793;SHT31;68134;51.984;5.652;2024-03-06T15:43:54;21.3;33.8
78793;SHT31;68134;51.984;5.652;2024-03-06T15:46:23;20.8;35.0
78793;SHT31;68134;51.984;5.652;2024-03-06T15:48:52;20.1;35.5
78793;SHT31;68134;51.984;5.652;2024-03-06T15:51:21;19.5;38.1
78793;SHT31;68134;51.984;5.652;2024-03-06T15:53:49;19.2;38.3
78793;SHT31;68134;51.984;5.652;2024-03-06T15:56:19;19.0;38.5
78793;SHT31;68134;51.984;5.652;2024-03-06T15:58:47;18.8;38.3
78793;SHT31;68134;51.984;5.652;2024-03-06T16:01:16;18.5;38.7
78793;SHT31;68134;51.984;5.652;2024-03-06T16:03:45;18.3;39.2
78793;SHT31;68134;51.984;5.652;2024-03-06T16:06:13;18.1;40.4
78793;SHT31;68134;51.984;5.652;2024-03-06T16:08:42;17.9;40.9
78793;SHT31;68134;51.984;5.652;2024-03-06T16:11:10;17.8;41.5
78793;SHT31;68134;51.984;5.652;2024-03-06T16:13:39;17.7;40.9
78793;SHT31;68134;51.984;5.652;2024-03-06T16:16:07;17.6;42.7
78793;SHT31;68134;51.984;5.652;2024-03-06T16:18:36;17.5;41.9
78793;SHT31;68134;51.984;5.652;2024-03-06T16:21:05;17.4;43.0
78793;SHT31;68134;51.984;5.652;2024-03-06T16:23:34;17.3;42.9
78793;SHT31;68134;51.984;5.652;2024-03-06T16:26:03;17.2;44.3
78793;SHT31;68134;51.984;5.652;2024-03-06T16:28:33;17.1;43.9
78793;SHT31;68134;51.984;5.652;2024-03-06T16:31:02;17.0;44.5